sensor_id;sensor_type;location;lat;lon;timestamp;P1;durP1;ratioP1;P2;durP2;ratioP2
10458;SDS011;5277;48.722;8.736;2023-06-24T00:00:28;5.10;;;4.40;;
10458;SDS011;5277;48.722;8.736;2023-06-24T00:02:54;5.13;;;4.18;;
10458;SDS011;5277;48.722;8.736;2023-06-24T00:05:19;5.28;;;4.60;;
10458;SDS011;5277;48.722;8.736;2023-06-24T00:07:45;6.40;;;4.80;;
10458;SDS011;5277;48.722;8.736;2023-06-24T00:10:11;6.40;;;4.95;;
10458;SDS011;5277;48.722;8.736;2023-06-24T00:12:38;7.72;;;5.10;;
10458;SDS011;5277;48.722;8.736;2023-06-24T00:15:05;10.02;;;4.60;;
10458;SDS011;5277;48.722;8.736;2023-06-24T00:17:31;4.90;;;4.03;;
10458;SDS011;5277;48.722;8.736;2023-06-24T00:19:57;5.13;;;4.22;;
10458;SDS011;5277;48.722;8.736;2023-06-24T00:22:22;5.88;;;4.70;;
10458;SDS011;5277;48.722;8.736;2023-06-24T00:24:48;8.27;;;4.80;;
10458;SDS011;5277;48.722;8.736;2023-06-24T00:27:15;4.97;;;4.43;;
10458;SDS011;5277;48.722;8.736;2023-06-24T00:29:40;6.15;;;4.93;;
10458;SDS011;5277;48.722;8.736;2023-06-24T00:32:06;6.05;;;4.93;;
10458;SDS011;5277;48.722;8.736;2023-06-24T00:34:32;6.07;;;4.47;;
10458;SDS011;5277;48.722;8.736;2023-06-24T00:36:59;5.38;;;4.78;;
10458;SDS011;5277;48.722;8.736;2023-06-24T00:39:24;5.80;;;4.65;;
10458;SDS011;5277;48.722;8.736;2023-06-24T00:41:50;6.22;;;4.88;;
10458;SDS011;5277;48.722;8.736;2023-06-24T00:44:16;6.20;;;4.32;;
10458;SDS011;5277;48.722;8.736;2023-06-24T00:46:41;9.88;;;4.93;;
10458;SDS011;5277;48.722;8.736;2023-06-24T00:49:07;5.05;;;4.35;;
10458;SDS011;5277;48.722;8.736;2023-06-24T00:51:33;7.53;;;4.45;;
10458;SDS011;5277;48.722;8.736;2023-06-24T00:54:01;5.80;;;4.63;;
10458;SDS011;5277;48.722;8.736;2023-06-24T00:56:35;5.45;;;4.60;;
10458;SDS011;5277;48.722;8.736;2023-06-24T00:59:07;4.88;;;3.95;;
10458;SDS011;5277;48.722;8.736;2023-06-24T01:01:35;6.75;;;4.35;;
10458;SDS011;5277;48.722;8.736;2023-06-24T01:04:01;6.35;;;4.82;;
10458;SDS011;5277;48.722;8.736;2023-06-24T01:06:28;6.72;;;4.78;;
10458;SDS011;5277;48.722;8.736;2023-06-24T01:09:01;9.15;;;4.50;;
10458;SDS011;5277;48.722;8.736;2023-06-24T01:11:27;8.77;;;4.70;;
10458;SDS011;5277;48.722;8.736;2023-06-24T01:13:54;5.05;;;4.55;;
10458;SDS011;5277;48.722;8.736;2023-06-24T01:16:42;4.78;;;4.25;;
10458;SDS011;5277;48.722;8.736;2023-06-24T01:30:41;9.05;;;6.32;;
10458;SDS011;5277;48.722;8.736;2023-06-24T01:33:15;6.28;;;5.53;;
10458;SDS011;5277;48.722;8.736;2023-06-24T01:35:53;5.95;;;4.85;;
10458;SDS011;5277;48.722;8.736;2023-06-24T01:38:36;5.75;;;4.68;;
10458;SDS011;5277;48.722;8.736;2023-06-24T01:41:06;4.78;;;4.18;;
10458;SDS011;5277;48.722;8.736;2023-06-24T01:43:35;4.93;;;4.20;;
10458;SDS011;5277;48.722;8.736;2023-06-24T01:46:02;5.35;;;4.53;;
10458;SDS011;5277;48.722;8.736;2023-06-24T01:48:29;5.22;;;4.40;;
10458;SDS011;5277;48.722;8.736;2023-06-24T01:51:18;7.07;;;4.88;;
10458;SDS011;5277;48.722;8.736;2023-06-24T01:53:48;5.63;;;4.40;;
10458;SDS011;5277;48.722;8.736;2023-06-24T01:56:17;4.95;;;4.45;;
10458;SDS011;5277;48.722;8.736;2023-06-24T01:58:45;6.95;;;5.10;;
10458;SDS011;5277;48.722;8.736;2023-06-24T02:01:13;6.13;;;4.90;;
10458;SDS011;5277;48.722;8.736;2023-06-24T02:03:41;6.72;;;5.18;;
10458;SDS011;5277;48.722;8.736;2023-06-24T02:06:07;5.05;;;3.83;;
10458;SDS011;5277;48.722;8.736;2023-06-24T02:08:34;7.20;;;4.70;;
10458;SDS011;5277;48.722;8.736;2023-06-24T02:11:02;6.50;;;4.80;;
10458;SDS011;5277;48.722;8.736;2023-06-24T02:13:29;4.97;;;4.25;;
10458;SDS011;5277;48.722;8.736;2023-06-24T02:16:00;5.65;;;4.35;;
10458;SDS011;5277;48.722;8.736;2023-06-24T02:18:28;5.75;;;4.15;;
10458;SDS011;5277;48.722;8.736;2023-06-24T02:20:53;4.50;;;4.05;;
10458;SDS011;5277;48.722;8.736;2023-06-24T02:23:21;5.57;;;3.80;;
10458;SDS011;5277;48.722;8.736;2023-06-24T02:25:49;5.80;;;4.50;;
10458;SDS011;5277;48.722;8.736;2023-06-24T02:28:15;6.00;;;4.53;;
10458;SDS011;5277;48.722;8.736;2023-06-24T02:30:42;7.88;;;4.32;;
10458;SDS011;5277;48.722;8.736;2023-06-24T02:33:08;5.55;;;4.65;;
10458;SDS011;5277;48.722;8.736;2023-06-24T02:35:36;8.20;;;4.32;;
10458;SDS011;5277;48.722;8.736;2023-06-24T02:38:06;6.38;;;4.80;;
10458;SDS011;5277;48.722;8.736;2023-06-24T02:40:32;4.95;;;4.45;;
10458;SDS011;5277;48.722;8.736;2023-06-24T02:42:59;6.03;;;3.97;;
10458;SDS011;5277;48.722;8.736;2023-06-24T02:45:24;5.18;;;4.13;;
10458;SDS011;5277;48.722;8.736;2023-06-24T02:47:51;5.75;;;4.75;;
10458;SDS011;5277;48.722;8.736;2023-06-24T02:50:18;5.38;;;4.22;;
10458;SDS011;5277;48.722;8.736;2023-06-24T02:52:45;5.43;;;4.25;;
10458;SDS011;5277;48.722;8.736;2023-06-24T02:55:11;4.97;;;4.28;;
10458;SDS011;5277;48.722;8.736;2023-06-24T02:57:38;7.25;;;4.60;;
10458;SDS011;5277;48.722;8.736;2023-06-24T03:00:05;6.07;;;4.22;;
10458;SDS011;5277;48.722;8.736;2023-06-24T03:02:37;7.35;;;3.95;;
10458;SDS011;5277;48.722;8.736;2023-06-24T03:05:03;5.55;;;4.50;;
10458;SDS011;5277;48.722;8.736;2023-06-24T03:07:31;5.50;;;4.25;;
10458;SDS011;5277;48.722;8.736;2023-06-24T03:10:00;5.00;;;4.40;;
10458;SDS011;5277;48.722;8.736;2023-06-24T03:12:27;7.72;;;3.85;;
10458;SDS011;5277;48.722;8.736;2023-06-24T03:14:53;5.15;;;4.05;;
10458;SDS011;5277;48.722;8.736;2023-06-24T03:17:19;5.97;;;4.18;;
10458;SDS011;5277;48.722;8.736;2023-06-24T03:19:45;6.35;;;4.57;;
10458;SDS011;5277;48.722;8.736;2023-06-24T03:22:11;5.43;;;4.47;;
10458;SDS011;5277;48.722;8.736;2023-06-24T03:24:36;6.30;;;4.32;;
10458;SDS011;5277;48.722;8.736;2023-06-24T03:27:02;4.97;;;4.03;;
10458;SDS011;5277;48.722;8.736;2023-06-24T03:29:28;6.30;;;4.50;;
10458;SDS011;5277;48.722;8.736;2023-06-24T03:31:54;6.18;;;4.10;;
10458;SDS011;5277;48.722;8.736;2023-06-24T03:34:19;6.00;;;4.07;;
10458;SDS011;5277;48.722;8.736;2023-06-24T03:36:45;6.22;;;4.40;;
10458;SDS011;5277;48.722;8.736;2023-06-24T03:39:10;5.97;;;4.75;;
10458;SDS011;5277;48.722;8.736;2023-06-24T03:41:36;8.20;;;4.32;;
10458;SDS011;5277;48.722;8.736;2023-06-24T03:44:02;5.25;;;4.40;;
10458;SDS011;5277;48.722;8.736;2023-06-24T03:46:27;5.45;;;4.55;;
10458;SDS011;5277;48.722;8.736;2023-06-24T03:48:57;5.57;;;4.25;;
10458;SDS011;5277;48.722;8.736;2023-06-24T03:51:23;5.68;;;4.32;;
10458;SDS011;5277;48.722;8.736;2023-06-24T03:53:49;6.47;;;4.10;;
10458;SDS011;5277;48.722;8.736;2023-06-24T03:56:16;5.97;;;4.43;;
10458;SDS011;5277;48.722;8.736;2023-06-24T03:58:42;5.15;;;4.32;;
10458;SDS011;5277;48.722;8.736;2023-06-24T04:01:07;5.20;;;4.55;;
10458;SDS011;5277;48.722;8.736;2023-06-24T04:03:34;6.15;;;4.53;;
10458;SDS011;5277;48.722;8.736;2023-06-24T04:06:00;6.95;;;4.20;;
10458;SDS011;5277;48.722;8.736;2023-06-24T04:08:26;5.65;;;4.57;;
10458;SDS011;5277;48.722;8.736;2023-06-24T04:10:56;5.57;;;4.15;;
10458;SDS011;5277;48.722;8.736;2023-06-24T04:13:22;4.72;;;4.22;;
10458;SDS011;5277;48.722;8.736;2023-06-24T04:15:47;6.38;;;4.47;;
10458;SDS011;5277;48.722;8.736;2023-06-24T04:18:13;5.45;;;4.32;;
10458;SDS011;5277;48.722;8.736;2023-06-24T04:20:39;5.95;;;4.53;;
10458;SDS011;5277;48.722;8.736;2023-06-24T04:23:05;5.07;;;4.22;;
10458;SDS011;5277;48.722;8.736;2023-06-24T04:25:31;5.88;;;4.43;;
10458;SDS011;5277;48.722;8.736;2023-06-24T04:27:56;5.72;;;4.55;;
10458;SDS011;5277;48.722;8.736;2023-06-24T04:30:22;6.05;;;4.10;;
10458;SDS011;5277;48.722;8.736;2023-06-24T04:32:48;6.05;;;4.45;;
10458;SDS011;5277;48.722;8.736;2023-06-24T04:35:13;6.95;;;4.80;;
10458;SDS011;5277;48.722;8.736;2023-06-24T04:37:39;7.35;;;4.28;;
10458;SDS011;5277;48.722;8.736;2023-06-24T04:40:05;5.30;;;4.43;;
10458;SDS011;5277;48.722;8.736;2023-06-24T04:42:31;6.57;;;4.55;;
10458;SDS011;5277;48.722;8.736;2023-06-24T04:44:56;4.45;;;3.92;;
10458;SDS011;5277;48.722;8.736;2023-06-24T04:47:22;6.47;;;4.55;;
10458;SDS011;5277;48.722;8.736;2023-06-24T04:49:47;5.53;;;4.40;;
10458;SDS011;5277;48.722;8.736;2023-06-24T04:52:13;6.20;;;4.80;;
10458;SDS011;5277;48.722;8.736;2023-06-24T04:54:39;5.70;;;4.70;;
10458;SDS011;5277;48.722;8.736;2023-06-24T04:57:06;5.40;;;4.20;;
10458;SDS011;5277;48.722;8.736;2023-06-24T04:59:34;6.38;;;4.40;;
10458;SDS011;5277;48.722;8.736;2023-06-24T05:02:00;5.75;;;4.07;;
10458;SDS011;5277;48.722;8.736;2023-06-24T05:04:25;5.80;;;4.35;;
10458;SDS011;5277;48.722;8.736;2023-06-24T05:06:51;4.60;;;4.13;;
10458;SDS011;5277;48.722;8.736;2023-06-24T05:09:17;5.30;;;4.00;;
10458;SDS011;5277;48.722;8.736;2023-06-24T05:11:43;5.78;;;4.35;;
10458;SDS011;5277;48.722;8.736;2023-06-24T05:14:09;4.88;;;4.30;;
10458;SDS011;5277;48.722;8.736;2023-06-24T05:16:35;4.88;;;4.25;;
10458;SDS011;5277;48.722;8.736;2023-06-24T05:19:01;4.40;;;3.97;;
10458;SDS011;5277;48.722;8.736;2023-06-24T05:21:26;6.32;;;4.22;;
10458;SDS011;5277;48.722;8.736;2023-06-24T05:23:52;4.70;;;4.05;;
10458;SDS011;5277;48.722;8.736;2023-06-24T05:26:17;5.13;;;4.35;;
10458;SDS011;5277;48.722;8.736;2023-06-24T05:28:43;5.88;;;4.45;;
10458;SDS011;5277;48.722;8.736;2023-06-24T05:31:08;12.30;;;4.88;;
10458;SDS011;5277;48.722;8.736;2023-06-24T05:33:34;6.07;;;4.55;;
10458;SDS011;5277;48.722;8.736;2023-06-24T05:35:59;5.55;;;4.35;;
10458;SDS011;5277;48.722;8.736;2023-06-24T05:38:25;4.70;;;4.13;;
10458;SDS011;5277;48.722;8.736;2023-06-24T05:40:50;5.32;;;4.07;;
10458;SDS011;5277;48.722;8.736;2023-06-24T05:43:16;6.07;;;3.95;;
10458;SDS011;5277;48.722;8.736;2023-06-24T05:45:41;5.40;;;3.97;;
10458;SDS011;5277;48.722;8.736;2023-06-24T05:48:08;4.70;;;4.20;;
10458;SDS011;5277;48.722;8.736;2023-06-24T05:50:33;4.28;;;3.60;;
10458;SDS011;5277;48.722;8.736;2023-06-24T05:52:59;6.47;;;4.10;;
10458;SDS011;5277;48.722;8.736;2023-06-24T05:55:25;5.60;;;4.28;;
10458;SDS011;5277;48.722;8.736;2023-06-24T05:57:50;4.55;;;3.53;;
10458;SDS011;5277;48.722;8.736;2023-06-24T06:00:17;4.15;;;3.72;;
10458;SDS011;5277;48.722;8.736;2023-06-24T06:02:43;4.40;;;3.80;;
10458;SDS011;5277;48.722;8.736;2023-06-24T06:05:09;5.63;;;3.95;;
10458;SDS011;5277;48.722;8.736;2023-06-24T06:07:34;4.50;;;4.00;;
10458;SDS011;5277;48.722;8.736;2023-06-24T06:10:02;4.13;;;3.60;;
10458;SDS011;5277;48.722;8.736;2023-06-24T06:12:28;4.78;;;4.05;;
10458;SDS011;5277;48.722;8.736;2023-06-24T06:14:53;4.93;;;4.25;;
10458;SDS011;5277;48.722;8.736;2023-06-24T06:17:19;4.70;;;3.90;;
10458;SDS011;5277;48.722;8.736;2023-06-24T06:19:45;4.35;;;3.60;;
10458;SDS011;5277;48.722;8.736;2023-06-24T06:22:14;5.00;;;4.20;;
10458;SDS011;5277;48.722;8.736;2023-06-24T06:24:40;4.30;;;3.63;;
10458;SDS011;5277;48.722;8.736;2023-06-24T06:27:09;5.53;;;4.15;;
10458;SDS011;5277;48.722;8.736;2023-06-24T06:29:38;4.72;;;4.03;;
10458;SDS011;5277;48.722;8.736;2023-06-24T06:32:04;3.92;;;3.53;;
10458;SDS011;5277;48.722;8.736;2023-06-24T06:34:30;5.82;;;3.90;;
10458;SDS011;5277;48.722;8.736;2023-06-24T06:36:55;5.28;;;4.03;;
10458;SDS011;5277;48.722;8.736;2023-06-24T06:39:21;4.03;;;3.47;;
10458;SDS011;5277;48.722;8.736;2023-06-24T06:41:46;4.68;;;3.58;;
10458;SDS011;5277;48.722;8.736;2023-06-24T06:44:14;6.32;;;3.80;;
10458;SDS011;5277;48.722;8.736;2023-06-24T06:46:40;9.23;;;3.80;;
10458;SDS011;5277;48.722;8.736;2023-06-24T06:49:06;5.75;;;3.80;;
10458;SDS011;5277;48.722;8.736;2023-06-24T06:51:31;4.32;;;3.85;;
10458;SDS011;5277;48.722;8.736;2023-06-24T06:53:57;5.20;;;3.97;;
10458;SDS011;5277;48.722;8.736;2023-06-24T06:56:23;5.43;;;3.63;;
10458;SDS011;5277;48.722;8.736;2023-06-24T06:58:51;5.10;;;3.65;;
10458;SDS011;5277;48.722;8.736;2023-06-24T07:01:17;4.88;;;3.47;;
10458;SDS011;5277;48.722;8.736;2023-06-24T07:03:43;4.28;;;3.60;;
10458;SDS011;5277;48.722;8.736;2023-06-24T07:06:09;3.85;;;3.50;;
10458;SDS011;5277;48.722;8.736;2023-06-24T07:08:35;4.13;;;3.42;;
10458;SDS011;5277;48.722;8.736;2023-06-24T07:11:01;4.97;;;3.50;;
10458;SDS011;5277;48.722;8.736;2023-06-24T07:13:27;3.80;;;3.30;;
10458;SDS011;5277;48.722;8.736;2023-06-24T07:15:53;3.88;;;3.38;;
10458;SDS011;5277;48.722;8.736;2023-06-24T07:18:19;3.53;;;3.22;;
10458;SDS011;5277;48.722;8.736;2023-06-24T07:20:45;4.30;;;3.50;;
10458;SDS011;5277;48.722;8.736;2023-06-24T07:23:11;4.72;;;3.95;;
10458;SDS011;5277;48.722;8.736;2023-06-24T07:25:36;4.78;;;4.07;;
10458;SDS011;5277;48.722;8.736;2023-06-24T07:28:02;4.90;;;3.65;;
10458;SDS011;5277;48.722;8.736;2023-06-24T07:30:28;3.88;;;3.47;;
10458;SDS011;5277;48.722;8.736;2023-06-24T07:32:54;3.67;;;3.20;;
10458;SDS011;5277;48.722;8.736;2023-06-24T07:35:19;8.73;;;3.50;;
10458;SDS011;5277;48.722;8.736;2023-06-24T07:37:45;4.45;;;3.00;;
10458;SDS011;5277;48.722;8.736;2023-06-24T07:40:10;4.38;;;3.53;;
10458;SDS011;5277;48.722;8.736;2023-06-24T07:42:36;3.85;;;3.42;;
10458;SDS011;5277;48.722;8.736;2023-06-24T07:45:02;5.10;;;3.50;;
10458;SDS011;5277;48.722;8.736;2023-06-24T07:47:28;4.22;;;3.58;;
10458;SDS011;5277;48.722;8.736;2023-06-24T07:49:53;5.18;;;3.30;;
10458;SDS011;5277;48.722;8.736;2023-06-24T07:52:19;4.60;;;3.60;;
10458;SDS011;5277;48.722;8.736;2023-06-24T07:54:44;4.88;;;2.97;;
10458;SDS011;5277;48.722;8.736;2023-06-24T07:57:10;4.53;;;3.05;;
10458;SDS011;5277;48.722;8.736;2023-06-24T07:59:35;4.53;;;3.55;;
10458;SDS011;5277;48.722;8.736;2023-06-24T08:02:01;4.07;;;3.40;;
10458;SDS011;5277;48.722;8.736;2023-06-24T08:04:27;6.55;;;3.67;;
10458;SDS011;5277;48.722;8.736;2023-06-24T08:06:52;4.40;;;3.75;;
10458;SDS011;5277;48.722;8.736;2023-06-24T08:09:18;3.22;;;2.92;;
10458;SDS011;5277;48.722;8.736;2023-06-24T08:11:44;3.67;;;3.08;;
10458;SDS011;5277;48.722;8.736;2023-06-24T08:14:09;3.90;;;3.33;;
10458;SDS011;5277;48.722;8.736;2023-06-24T08:16:35;4.22;;;3.30;;
10458;SDS011;5277;48.722;8.736;2023-06-24T08:19:00;4.93;;;3.50;;
10458;SDS011;5277;48.722;8.736;2023-06-24T08:21:26;4.30;;;3.30;;
10458;SDS011;5277;48.722;8.736;2023-06-24T08:23:52;4.97;;;3.28;;
10458;SDS011;5277;48.722;8.736;2023-06-24T08:26:19;3.90;;;3.50;;
10458;SDS011;5277;48.722;8.736;2023-06-24T08:28:46;5.13;;;3.55;;
10458;SDS011;5277;48.722;8.736;2023-06-24T08:31:12;3.72;;;3.40;;
10458;SDS011;5277;48.722;8.736;2023-06-24T08:33:38;4.28;;;3.42;;
10458;SDS011;5277;48.722;8.736;2023-06-24T08:36:03;4.38;;;2.97;;
10458;SDS011;5277;48.722;8.736;2023-06-24T08:38:29;4.22;;;3.53;;
10458;SDS011;5277;48.722;8.736;2023-06-24T08:40:55;4.05;;;3.28;;
10458;SDS011;5277;48.722;8.736;2023-06-24T08:43:21;3.60;;;2.78;;
10458;SDS011;5277;48.722;8.736;2023-06-24T08:45:47;4.18;;;3.60;;
10458;SDS011;5277;48.722;8.736;2023-06-24T08:48:12;5.03;;;3.22;;
10458;SDS011;5277;48.722;8.736;2023-06-24T08:50:46;3.47;;;3.17;;
10458;SDS011;5277;48.722;8.736;2023-06-24T08:53:16;3.70;;;3.28;;
10458;SDS011;5277;48.722;8.736;2023-06-24T08:55:45;5.28;;;3.42;;
10458;SDS011;5277;48.722;8.736;2023-06-24T08:58:11;3.78;;;3.15;;
10458;SDS011;5277;48.722;8.736;2023-06-24T09:00:37;6.43;;;3.15;;
10458;SDS011;5277;48.722;8.736;2023-06-24T09:03:03;4.80;;;3.13;;
10458;SDS011;5277;48.722;8.736;2023-06-24T09:05:29;4.25;;;3.35;;
10458;SDS011;5277;48.722;8.736;2023-06-24T09:07:54;3.53;;;3.17;;
10458;SDS011;5277;48.722;8.736;2023-06-24T09:10:33;4.00;;;2.90;;
10458;SDS011;5277;48.722;8.736;2023-06-24T09:13:02;3.33;;;2.90;;
10458;SDS011;5277;48.722;8.736;2023-06-24T09:15:29;4.10;;;2.92;;
10458;SDS011;5277;48.722;8.736;2023-06-24T09:18:02;3.67;;;3.00;;
10458;SDS011;5277;48.722;8.736;2023-06-24T09:20:28;2.95;;;2.65;;
10458;SDS011;5277;48.722;8.736;2023-06-24T09:22:58;3.17;;;2.72;;
10458;SDS011;5277;48.722;8.736;2023-06-24T09:25:27;3.45;;;2.75;;
10458;SDS011;5277;48.722;8.736;2023-06-24T09:27:53;3.58;;;2.83;;
10458;SDS011;5277;48.722;8.736;2023-06-24T09:30:21;4.10;;;2.50;;
10458;SDS011;5277;48.722;8.736;2023-06-24T09:32:48;3.47;;;2.42;;
10458;SDS011;5277;48.722;8.736;2023-06-24T09:35:14;3.33;;;3.03;;
10458;SDS011;5277;48.722;8.736;2023-06-24T09:40:17;3.05;;;2.50;;
10458;SDS011;5277;48.722;8.736;2023-06-24T09:43:01;4.03;;;2.60;;
10458;SDS011;5277;48.722;8.736;2023-06-24T09:45:29;3.28;;;2.63;;
10458;SDS011;5277;48.722;8.736;2023-06-24T09:47:55;2.83;;;2.50;;
10458;SDS011;5277;48.722;8.736;2023-06-24T09:50:21;2.60;;;2.28;;
10458;SDS011;5277;48.722;8.736;2023-06-24T09:52:48;2.92;;;2.63;;
10458;SDS011;5277;48.722;8.736;2023-06-24T09:55:15;2.70;;;2.50;;
10458;SDS011;5277;48.722;8.736;2023-06-24T09:57:43;2.42;;;2.10;;
10458;SDS011;5277;48.722;8.736;2023-06-24T10:00:11;3.70;;;2.55;;
10458;SDS011;5277;48.722;8.736;2023-06-24T10:02:41;2.75;;;2.50;;
10458;SDS011;5277;48.722;8.736;2023-06-24T10:05:07;3.58;;;2.60;;
10458;SDS011;5277;48.722;8.736;2023-06-24T10:07:34;3.55;;;2.28;;
10458;SDS011;5277;48.722;8.736;2023-06-24T10:10:02;3.78;;;2.53;;
10458;SDS011;5277;48.722;8.736;2023-06-24T10:12:28;3.72;;;2.47;;
10458;SDS011;5277;48.722;8.736;2023-06-24T10:14:54;3.15;;;2.45;;
10458;SDS011;5277;48.722;8.736;2023-06-24T10:17:20;3.13;;;2.10;;
10458;SDS011;5277;48.722;8.736;2023-06-24T10:19:46;3.17;;;2.08;;
10458;SDS011;5277;48.722;8.736;2023-06-24T10:22:11;4.57;;;2.35;;
10458;SDS011;5277;48.722;8.736;2023-06-24T10:24:38;3.00;;;2.55;;
10458;SDS011;5277;48.722;8.736;2023-06-24T10:27:07;2.78;;;2.30;;
10458;SDS011;5277;48.722;8.736;2023-06-24T10:29:37;3.47;;;2.63;;
10458;SDS011;5277;48.722;8.736;2023-06-24T10:32:06;2.60;;;2.40;;
10458;SDS011;5277;48.722;8.736;2023-06-24T10:34:40;2.90;;;2.67;;
10458;SDS011;5277;48.722;8.736;2023-06-24T10:37:11;2.80;;;2.50;;
10458;SDS011;5277;48.722;8.736;2023-06-24T10:39:54;2.95;;;2.65;;
10458;SDS011;5277;48.722;8.736;2023-06-24T10:42:33;3.08;;;2.58;;
10458;SDS011;5277;48.722;8.736;2023-06-24T10:47:38;2.60;;;2.33;;
10458;SDS011;5277;48.722;8.736;2023-06-24T10:50:05;2.60;;;2.40;;
10458;SDS011;5277;48.722;8.736;2023-06-24T10:52:32;2.65;;;2.45;;
10458;SDS011;5277;48.722;8.736;2023-06-24T10:55:02;3.78;;;2.60;;
10458;SDS011;5277;48.722;8.736;2023-06-24T10:57:28;4.55;;;2.45;;
10458;SDS011;5277;48.722;8.736;2023-06-24T10:59:54;3.08;;;2.70;;
10458;SDS011;5277;48.722;8.736;2023-06-24T11:02:21;2.75;;;2.45;;
10458;SDS011;5277;48.722;8.736;2023-06-24T11:04:49;2.65;;;2.45;;
10458;SDS011;5277;48.722;8.736;2023-06-24T11:07:19;3.50;;;3.10;;
10458;SDS011;5277;48.722;8.736;2023-06-24T11:10:00;3.60;;;2.80;;
10458;SDS011;5277;48.722;8.736;2023-06-24T11:12:30;2.97;;;2.63;;
10458;SDS011;5277;48.722;8.736;2023-06-24T11:15:03;2.85;;;2.55;;
10458;SDS011;5277;48.722;8.736;2023-06-24T11:17:31;2.70;;;2.45;;
10458;SDS011;5277;48.722;8.736;2023-06-24T11:19:58;3.03;;;2.72;;
10458;SDS011;5277;48.722;8.736;2023-06-24T11:22:24;2.78;;;2.30;;
10458;SDS011;5277;48.722;8.736;2023-06-24T11:24:51;2.38;;;2.17;;
10458;SDS011;5277;48.722;8.736;2023-06-24T11:27:23;2.42;;;2.22;;
10458;SDS011;5277;48.722;8.736;2023-06-24T11:29:51;2.70;;;2.50;;
10458;SDS011;5277;48.722;8.736;2023-06-24T11:32:18;4.07;;;2.80;;
10458;SDS011;5277;48.722;8.736;2023-06-24T11:34:43;3.10;;;2.80;;
10458;SDS011;5277;48.722;8.736;2023-06-24T11:37:13;2.90;;;2.58;;
10458;SDS011;5277;48.722;8.736;2023-06-24T11:39:43;3.47;;;2.45;;
10458;SDS011;5277;48.722;8.736;2023-06-24T11:42:09;2.97;;;2.67;;
10458;SDS011;5277;48.722;8.736;2023-06-24T11:44:40;2.75;;;2.53;;
10458;SDS011;5277;48.722;8.736;2023-06-24T11:47:10;2.67;;;2.33;;
10458;SDS011;5277;48.722;8.736;2023-06-24T11:49:49;3.20;;;2.90;;
10458;SDS011;5277;48.722;8.736;2023-06-24T11:52:32;2.50;;;2.30;;
10458;SDS011;5277;48.722;8.736;2023-06-24T11:54:59;2.60;;;2.40;;
10458;SDS011;5277;48.722;8.736;2023-06-24T12:00:20;2.90;;;2.65;;
10458;SDS011;5277;48.722;8.736;2023-06-24T12:02:49;3.20;;;2.90;;
10458;SDS011;5277;48.722;8.736;2023-06-24T12:05:31;3.20;;;2.90;;
10458;SDS011;5277;48.722;8.736;2023-06-24T12:08:01;2.95;;;2.50;;
10458;SDS011;5277;48.722;8.736;2023-06-24T12:10:31;3.03;;;2.72;;
10458;SDS011;5277;48.722;8.736;2023-06-24T12:12:58;3.40;;;3.00;;
10458;SDS011;5277;48.722;8.736;2023-06-24T12:15:25;2.72;;;2.35;;
10458;SDS011;5277;48.722;8.736;2023-06-24T12:17:51;2.70;;;2.40;;
10458;SDS011;5277;48.722;8.736;2023-06-24T12:20:17;2.95;;;2.65;;
10458;SDS011;5277;48.722;8.736;2023-06-24T12:22:44;2.83;;;2.47;;
10458;SDS011;5277;48.722;8.736;2023-06-24T12:25:10;3.05;;;2.63;;
10458;SDS011;5277;48.722;8.736;2023-06-24T12:27:36;2.80;;;2.60;;
10458;SDS011;5277;48.722;8.736;2023-06-24T12:30:02;2.97;;;2.70;;
10458;SDS011;5277;48.722;8.736;2023-06-24T12:32:28;5.13;;;2.42;;
10458;SDS011;5277;48.722;8.736;2023-06-24T12:34:54;3.30;;;2.80;;
10458;SDS011;5277;48.722;8.736;2023-06-24T12:37:19;2.88;;;2.58;;
10458;SDS011;5277;48.722;8.736;2023-06-24T12:39:45;5.30;;;2.40;;
10458;SDS011;5277;48.722;8.736;2023-06-24T12:42:11;3.10;;;2.65;;
10458;SDS011;5277;48.722;8.736;2023-06-24T12:44:36;2.90;;;2.70;;
10458;SDS011;5277;48.722;8.736;2023-06-24T12:47:03;3.00;;;2.70;;
10458;SDS011;5277;48.722;8.736;2023-06-24T12:49:28;4.47;;;2.50;;
10458;SDS011;5277;48.722;8.736;2023-06-24T12:51:54;2.80;;;2.50;;
10458;SDS011;5277;48.722;8.736;2023-06-24T12:54:19;3.00;;;2.70;;
10458;SDS011;5277;48.722;8.736;2023-06-24T12:56:45;2.70;;;2.40;;
10458;SDS011;5277;48.722;8.736;2023-06-24T12:59:11;2.92;;;2.63;;
10458;SDS011;5277;48.722;8.736;2023-06-24T13:01:36;7.18;;;2.40;;
10458;SDS011;5277;48.722;8.736;2023-06-24T13:04:02;3.42;;;2.58;;
10458;SDS011;5277;48.722;8.736;2023-06-24T13:06:27;3.10;;;2.83;;
10458;SDS011;5277;48.722;8.736;2023-06-24T13:08:53;3.45;;;2.50;;
10458;SDS011;5277;48.722;8.736;2023-06-24T13:11:19;3.60;;;3.10;;
10458;SDS011;5277;48.722;8.736;2023-06-24T13:13:44;2.80;;;2.50;;
10458;SDS011;5277;48.722;8.736;2023-06-24T13:16:10;3.25;;;2.65;;
10458;SDS011;5277;48.722;8.736;2023-06-24T13:18:35;2.90;;;2.60;;
10458;SDS011;5277;48.722;8.736;2023-06-24T13:21:01;3.00;;;2.47;;
10458;SDS011;5277;48.722;8.736;2023-06-24T13:23:26;2.75;;;2.47;;
10458;SDS011;5277;48.722;8.736;2023-06-24T13:25:52;2.67;;;2.47;;
10458;SDS011;5277;48.722;8.736;2023-06-24T13:28:18;2.85;;;2.55;;
10458;SDS011;5277;48.722;8.736;2023-06-24T13:30:43;2.92;;;2.38;;
10458;SDS011;5277;48.722;8.736;2023-06-24T13:33:09;3.50;;;2.80;;
10458;SDS011;5277;48.722;8.736;2023-06-24T13:35:35;3.05;;;2.42;;
10458;SDS011;5277;48.722;8.736;2023-06-24T13:38:00;3.08;;;2.20;;
10458;SDS011;5277;48.722;8.736;2023-06-24T13:40:26;2.40;;;2.17;;
10458;SDS011;5277;48.722;8.736;2023-06-24T13:42:51;3.15;;;2.42;;
10458;SDS011;5277;48.722;8.736;2023-06-24T13:45:17;3.15;;;2.50;;
10458;SDS011;5277;48.722;8.736;2023-06-24T13:47:42;4.45;;;2.40;;
10458;SDS011;5277;48.722;8.736;2023-06-24T13:50:08;2.70;;;2.10;;
10458;SDS011;5277;48.722;8.736;2023-06-24T13:52:34;2.67;;;2.38;;
10458;SDS011;5277;48.722;8.736;2023-06-24T13:55:00;2.58;;;2.25;;
10458;SDS011;5277;48.722;8.736;2023-06-24T13:57:25;2.53;;;2.33;;
10458;SDS011;5277;48.722;8.736;2023-06-24T13:59:51;3.50;;;2.47;;
10458;SDS011;5277;48.722;8.736;2023-06-24T14:02:16;2.55;;;2.30;;
10458;SDS011;5277;48.722;8.736;2023-06-24T14:04:43;2.75;;;2.35;;
10458;SDS011;5277;48.722;8.736;2023-06-24T14:07:08;3.08;;;2.60;;
10458;SDS011;5277;48.722;8.736;2023-06-24T14:09:34;2.72;;;2.05;;
10458;SDS011;5277;48.722;8.736;2023-06-24T14:12:00;2.60;;;2.10;;
10458;SDS011;5277;48.722;8.736;2023-06-24T14:14:26;2.95;;;2.58;;
10458;SDS011;5277;48.722;8.736;2023-06-24T14:16:52;3.45;;;2.65;;
10458;SDS011;5277;48.722;8.736;2023-06-24T14:19:17;2.50;;;2.30;;
10458;SDS011;5277;48.722;8.736;2023-06-24T14:21:43;2.95;;;2.20;;
10458;SDS011;5277;48.722;8.736;2023-06-24T14:24:09;2.40;;;2.20;;
10458;SDS011;5277;48.722;8.736;2023-06-24T14:26:36;3.60;;;2.40;;
10458;SDS011;5277;48.722;8.736;2023-06-24T14:29:02;3.22;;;2.58;;
10458;SDS011;5277;48.722;8.736;2023-06-24T14:31:27;3.72;;;2.50;;
10458;SDS011;5277;48.722;8.736;2023-06-24T14:33:53;2.63;;;2.42;;
10458;SDS011;5277;48.722;8.736;2023-06-24T14:36:19;3.03;;;2.47;;
10458;SDS011;5277;48.722;8.736;2023-06-24T14:38:44;2.47;;;2.20;;
10458;SDS011;5277;48.722;8.736;2023-06-24T14:41:10;7.82;;;2.50;;
10458;SDS011;5277;48.722;8.736;2023-06-24T14:43:36;2.53;;;2.33;;
10458;SDS011;5277;48.722;8.736;2023-06-24T14:46:01;2.75;;;2.20;;
10458;SDS011;5277;48.722;8.736;2023-06-24T14:48:27;3.10;;;2.38;;
10458;SDS011;5277;48.722;8.736;2023-06-24T14:50:53;3.47;;;2.20;;
10458;SDS011;5277;48.722;8.736;2023-06-24T14:53:18;3.05;;;2.20;;
10458;SDS011;5277;48.722;8.736;2023-06-24T14:55:44;3.30;;;2.20;;
10458;SDS011;5277;48.722;8.736;2023-06-24T14:58:10;2.90;;;2.28;;
10458;SDS011;5277;48.722;8.736;2023-06-24T15:00:36;2.65;;;2.30;;
10458;SDS011;5277;48.722;8.736;2023-06-24T15:03:01;3.30;;;2.10;;
10458;SDS011;5277;48.722;8.736;2023-06-24T15:05:27;4.40;;;2.72;;
10458;SDS011;5277;48.722;8.736;2023-06-24T15:07:52;3.65;;;2.60;;
10458;SDS011;5277;48.722;8.736;2023-06-24T15:10:18;2.80;;;2.30;;
10458;SDS011;5277;48.722;8.736;2023-06-24T15:12:44;2.50;;;2.30;;
10458;SDS011;5277;48.722;8.736;2023-06-24T15:15:10;6.93;;;2.63;;
10458;SDS011;5277;48.722;8.736;2023-06-24T15:17:35;5.53;;;2.65;;